createdAt,value
2022-09-25T00:00:56.447Z,94.49
2022-09-25T00:04:57.738Z,94.34
2022-09-25T00:09:00.278Z,94.32
2022-09-25T00:13:01.881Z,94.13
2022-09-25T00:17:03.397Z,94.31
2022-09-25T00:21:05.666Z,94.61
2022-09-25T00:25:13.713Z,94.48
2022-09-25T00:29:18.096Z,94.34
2022-09-25T00:33:19.544Z,95.04
2022-09-25T00:37:21.017Z,95.33
2022-09-25T00:41:29.728Z,95.40
2022-09-25T00:45:31.266Z,95.26
2022-09-25T00:49:32.655Z,95.43
2022-09-25T00:53:36.949Z,95.19
2022-09-25T00:57:39.392Z,94.79
2022-09-25T01:01:41.300Z,95.11
2022-09-25T01:05:44.134Z,95.22
2022-09-25T01:09:46.288Z,95.62
2022-09-25T01:13:47.593Z,95.85
2022-09-25T01:17:54.662Z,95.62
2022-09-25T01:22:05.018Z,95.43
2022-09-25T01:26:25.174Z,95.30
2022-09-25T01:30:26.785Z,95.58
2022-09-25T01:34:41.162Z,95.38
2022-09-25T01:38:56.829Z,95.01
2022-09-25T01:43:04.885Z,95.22
2022-09-25T01:47:09.157Z,94.83
2022-09-25T01:51:21.735Z,95.12
2022-09-25T01:55:46.207Z,94.39
2022-09-25T01:59:59.466Z,94.69
2022-09-25T02:04:14.749Z,94.63
2022-09-25T02:08:28.851Z,94.13
2022-09-25T02:12:34.325Z,93.78
2022-09-25T02:16:38.380Z,93.78
2022-09-25T02:20:42.508Z,93.64
2022-09-25T02:24:59.101Z,94.06
2022-09-25T02:29:02.346Z,93.57
2022-09-25T02:33:03.926Z,93.52
2022-09-25T02:37:19.125Z,93.53
2022-09-25T02:41:31.374Z,93.96
2022-09-25T02:45:41.702Z,94.13
2022-09-25T02:49:55.797Z,94.02
2022-09-25T02:54:13.694Z,93.69
2022-09-25T02:58:27.812Z,94.25
2022-09-25T03:02:30.695Z,94.45
2022-09-25T03:06:32.270Z,93.92
2022-09-25T03:10:35.695Z,94.16
2022-09-25T03:14:36.933Z,94.26
2022-09-25T03:18:45.870Z,94.74
2022-09-25T03:22:47.994Z,94.88
2022-09-25T03:26:49.316Z,94.85
2022-09-25T03:31:04.840Z,94.85
2022-09-25T03:35:06.725Z,95.16
2022-09-25T03:39:10.633Z,95.05
2022-09-25T03:43:18.867Z,95.46
2022-09-25T03:47:20.130Z,95.57
2022-09-25T03:51:21.609Z,96.00
2022-09-25T03:55:22.854Z,95.56
2022-09-25T03:59:24.676Z,95.49
2022-09-25T04:03:35.910Z,95.02
2022-09-25T04:07:37.288Z,94.80
2022-09-25T04:11:38.572Z,95.15
2022-09-25T04:15:42.020Z,94.43
2022-09-25T04:19:43.364Z,94.87
2022-09-25T04:24:04.643Z,95.41
2022-09-25T04:28:07.000Z,94.65
2022-09-25T04:32:26.874Z,94.98
2022-09-25T04:36:28.128Z,95.10
2022-09-25T04:40:36.902Z,95.72
2022-09-25T04:44:38.278Z,95.77
2022-09-25T04:48:39.680Z,95.75
2022-09-25T04:52:40.913Z,95.33
2022-09-25T04:56:45.201Z,95.98
2022-09-25T05:00:46.841Z,95.92
2022-09-25T05:04:48.166Z,95.84
2022-09-25T05:08:49.738Z,95.36
2022-09-25T05:12:54.848Z,95.75
2022-09-25T05:16:56.152Z,95.89
2022-09-25T05:20:58.045Z,95.75
2022-09-25T05:24:59.571Z,95.88
2022-09-25T05:29:07.893Z,95.72
2022-09-25T05:33:16.220Z,95.66
2022-09-25T05:37:17.593Z,95.64
2022-09-25T05:41:18.889Z,95.56
2022-09-25T05:45:21.114Z,95.31
2022-09-25T05:49:23.402Z,95.08
2022-09-25T05:53:25.264Z,95.42
2022-09-25T05:57:28.014Z,94.94
2022-09-25T06:01:29.307Z,95.13
2022-09-25T06:05:30.650Z,95.58
2022-09-25T06:09:38.868Z,96.06
2022-09-25T06:13:49.581Z,95.36
2022-09-25T06:17:55.648Z,95.38
2022-09-25T06:21:59.951Z,94.80
2022-09-25T06:26:02.622Z,94.56
2022-09-25T06:30:04.110Z,94.57
2022-09-25T06:34:05.938Z,94.60
2022-09-25T06:38:07.197Z,94.19
2022-09-25T06:42:14.893Z,94.35
2022-09-25T06:46:16.354Z,93.99
2022-09-25T06:50:17.797Z,94.41
2022-09-25T06:54:19.263Z,94.08
2022-09-25T06:58:28.950Z,94.06
2022-09-25T07:02:48.680Z,93.76
2022-09-25T07:06:50.402Z,93.91
2022-09-25T07:10:53.292Z,93.07
2022-09-25T07:14:54.761Z,92.34
2022-09-25T07:18:57.320Z,91.83
2022-09-25T07:23:03.930Z,91.63
2022-09-25T07:27:11.905Z,91.13
2022-09-25T07:31:24.268Z,90.04
2022-09-25T07:35:27.068Z,89.07
2022-09-25T07:39:28.394Z,88.19
2022-09-25T07:43:29.878Z,87.29
2022-09-25T07:47:37.986Z,86.12
2022-09-25T07:51:39.415Z,85.65
2022-09-25T07:55:41.257Z,85.08
2022-09-25T07:59:49.581Z,84.66
2022-09-25T08:03:51.150Z,83.99
2022-09-25T08:07:52.989Z,82.83
2022-09-25T08:11:54.309Z,79.62
2022-09-25T08:15:56.389Z,75.85
2022-09-25T08:19:58.761Z,75.24
2022-09-25T08:24:08.016Z,75.01
2022-09-25T08:28:15.971Z,76.57
2022-09-25T08:32:17.205Z,77.22
2022-09-25T08:36:18.606Z,78.10
2022-09-25T08:40:23.000Z,78.32
2022-09-25T08:44:24.312Z,77.87
2022-09-25T08:48:52.927Z,77.51
2022-09-25T08:53:12.010Z,77.44
2022-09-25T08:57:16.581Z,77.46
2022-09-25T09:01:23.078Z,77.18
2022-09-25T09:05:29.376Z,77.30
2022-09-25T09:09:35.473Z,77.94
2022-09-25T09:13:43.564Z,77.06
2022-09-25T09:17:44.911Z,77.05
2022-09-25T09:21:46.328Z,76.59
2022-09-25T09:25:47.599Z,76.07
2022-09-25T09:30:09.094Z,76.66
2022-09-25T09:34:40.945Z,76.60
2022-09-25T09:38:58.914Z,75.48
2022-09-25T09:43:01.305Z,75.17
2022-09-25T09:47:11.764Z,75.42
2022-09-25T09:51:22.008Z,76.39
2022-09-25T09:55:33.478Z,77.15
2022-09-25T09:59:43.681Z,76.20
2022-09-25T10:03:47.493Z,76.65
2022-09-25T10:07:57.466Z,76.09
2022-09-25T10:12:11.812Z,74.82
2022-09-25T10:16:22.061Z,74.83
2022-09-25T10:20:24.784Z,73.63
2022-09-25T10:24:45.130Z,73.86
2022-09-25T10:28:46.682Z,75.07
2022-09-25T10:33:07.114Z,75.93
2022-09-25T10:37:19.665Z,77.21
2022-09-25T10:41:21.352Z,77.30
2022-09-25T10:45:29.134Z,76.60
2022-09-25T10:49:49.306Z,75.08
2022-09-25T10:54:17.367Z,75.59
2022-09-25T10:58:24.748Z,73.95
2022-09-25T11:02:39.186Z,73.69
2022-09-25T11:06:52.499Z,73.51
2022-09-25T11:10:57.028Z,72.43
2022-09-25T11:15:12.072Z,72.46
2022-09-25T11:19:19.706Z,73.26
2022-09-25T11:23:34.237Z,72.59
2022-09-25T11:27:43.671Z,73.89
2022-09-25T11:31:59.323Z,73.77
2022-09-25T11:36:04.965Z,74.15
2022-09-25T11:40:38.500Z,73.87
2022-09-25T11:44:57.885Z,75.08
2022-09-25T11:49:12.207Z,73.03
2022-09-25T11:53:17.527Z,71.43
2022-09-25T11:57:39.140Z,71.98
2022-09-25T12:01:45.376Z,72.36
2022-09-25T12:06:05.634Z,74.06
2022-09-25T12:10:19.379Z,73.63
2022-09-25T12:14:20.610Z,73.95
2022-09-25T12:18:40.553Z,74.05
2022-09-25T12:22:51.749Z,74.41
2022-09-25T12:27:04.074Z,74.91
2022-09-25T12:31:08.202Z,74.45
2022-09-25T12:35:13.174Z,74.03
2022-09-25T12:39:35.453Z,73.52
2022-09-25T12:43:59.238Z,74.39
2022-09-25T12:48:26.896Z,75.03
2022-09-25T12:52:42.084Z,72.45
2022-09-25T12:56:51.339Z,71.86
2022-09-25T13:01:03.142Z,70.79
2022-09-25T13:05:22.005Z,71.05
2022-09-25T13:09:29.681Z,71.74
2022-09-25T13:13:36.478Z,71.13
2022-09-25T13:17:45.164Z,69.93
2022-09-25T13:21:47.213Z,69.60
2022-09-25T13:25:58.013Z,70.45
2022-09-25T13:30:01.351Z,70.68
2022-09-25T13:34:03.009Z,69.98
2022-09-25T13:38:14.333Z,69.92
2022-09-25T13:42:18.825Z,71.74
2022-09-25T13:46:21.560Z,72.68
2022-09-25T13:50:27.554Z,71.81
2022-09-25T13:54:36.372Z,71.56
2022-09-25T13:59:03.165Z,71.42
2022-09-25T14:03:05.077Z,70.87
2022-09-25T14:07:13.011Z,71.24
2022-09-25T14:11:16.539Z,70.50
2022-09-25T14:15:21.346Z,70.27
2022-09-25T14:19:39.553Z,69.54
2022-09-25T14:23:51.818Z,68.30
2022-09-25T14:27:54.070Z,66.58
2022-09-25T14:32:05.245Z,65.96
2022-09-25T14:36:12.557Z,65.32
2022-09-25T14:40:22.607Z,63.23
2022-09-25T14:44:36.122Z,62.78
2022-09-25T14:48:45.972Z,61.77
2022-09-25T14:52:55.598Z,61.36
2022-09-25T14:56:57.420Z,60.01
2022-09-25T15:01:05.335Z,60.45
2022-09-25T15:05:17.031Z,58.79
2022-09-25T15:09:34.622Z,59.42
2022-09-25T15:13:36.062Z,59.58
2022-09-25T15:17:49.406Z,59.13
2022-09-25T15:21:52.122Z,59.88
2022-09-25T15:25:57.121Z,57.45
2022-09-25T15:30:00.411Z,58.51
2022-09-25T15:34:03.985Z,58.33
2022-09-25T15:38:13.422Z,58.70
2022-09-25T15:42:14.934Z,59.85
2022-09-25T15:46:31.002Z,60.29
2022-09-25T15:50:32.585Z,61.04
2022-09-25T15:54:42.885Z,61.04
2022-09-25T15:58:46.463Z,62.40
2022-09-25T16:03:09.247Z,62.31
2022-09-25T16:07:47.705Z,63.70
2022-09-25T16:11:49.226Z,62.62
2022-09-25T16:15:52.305Z,63.69
2022-09-25T16:20:05.572Z,65.03
2022-09-25T16:24:10.007Z,64.68
2022-09-25T16:28:23.428Z,65.26
2022-09-25T16:32:31.476Z,65.60
2022-09-25T16:36:47.226Z,66.03
2022-09-25T16:41:02.437Z,66.59
2022-09-25T16:45:14.856Z,67.68
2022-09-25T16:49:26.249Z,68.26
2022-09-25T16:53:30.626Z,69.04
2022-09-25T16:57:32.286Z,69.50
2022-09-25T17:01:33.776Z,70.70
2022-09-25T17:05:42.257Z,71.35
2022-09-25T17:09:43.523Z,72.81
2022-09-25T17:13:52.231Z,73.12
2022-09-25T17:17:55.310Z,73.60
2022-09-25T17:21:57.819Z,74.12
2022-09-25T17:26:19.358Z,75.17
2022-09-25T17:30:20.728Z,75.04
2022-09-25T17:34:28.386Z,75.39
2022-09-25T17:38:38.468Z,75.30
2022-09-25T17:42:40.061Z,77.04
2022-09-25T17:46:48.539Z,77.41
2022-09-25T17:50:50.887Z,77.89
2022-09-25T17:54:52.215Z,78.09
2022-09-25T17:58:56.569Z,78.58
2022-09-25T18:03:04.458Z,79.17
2022-09-25T18:07:26.788Z,79.71
2022-09-25T18:11:31.353Z,78.97
2022-09-25T18:15:40.660Z,79.83
2022-09-25T18:20:00.893Z,79.70
2022-09-25T18:24:02.304Z,79.90
2022-09-25T18:28:03.600Z,80.57
2022-09-25T18:32:04.962Z,80.76
2022-09-25T18:36:12.325Z,80.95
2022-09-25T18:40:14.904Z,82.13
2022-09-25T18:44:24.516Z,82.85
2022-09-25T18:48:32.345Z,82.66
2022-09-25T18:52:40.450Z,82.73
2022-09-25T18:56:42.128Z,82.95
2022-09-25T19:00:43.445Z,82.78
2022-09-25T19:04:45.434Z,83.32
2022-09-25T19:08:54.241Z,83.73
2022-09-25T19:12:55.954Z,84.21
2022-09-25T19:16:57.366Z,83.98
2022-09-25T19:20:58.656Z,84.22
2022-09-25T19:25:00.005Z,84.33
2022-09-25T19:29:01.592Z,84.51
2022-09-25T19:33:09.723Z,84.84
2022-09-25T19:37:18.537Z,85.23
2022-09-25T19:41:22.674Z,85.21
2022-09-25T19:45:24.270Z,85.15
2022-09-25T19:49:25.569Z,85.07
2022-09-25T19:53:27.110Z,84.60
2022-09-25T19:57:28.409Z,84.90
2022-09-25T20:01:30.346Z,84.95
2022-09-25T20:05:36.309Z,85.82
2022-09-25T20:09:40.031Z,85.60
2022-09-25T20:13:41.526Z,85.03
2022-09-25T20:17:43.166Z,85.70
2022-09-25T20:21:51.328Z,86.22
2022-09-25T20:25:52.570Z,86.41
2022-09-25T20:29:53.836Z,85.92
2022-09-25T20:33:55.644Z,86.28
2022-09-25T20:37:56.958Z,86.77
2022-09-25T20:41:59.022Z,86.56
2022-09-25T20:46:04.888Z,87.08
2022-09-25T20:50:07.468Z,87.52
2022-09-25T20:54:09.689Z,87.29
2022-09-25T20:58:11.468Z,87.64
2022-09-25T21:02:12.727Z,87.54
2022-09-25T21:06:24.498Z,87.33
2022-09-25T21:10:32.338Z,87.09
2022-09-25T21:14:34.029Z,86.65
2022-09-25T21:18:35.967Z,86.21
2022-09-25T21:22:37.529Z,86.20
2022-09-25T21:26:45.756Z,86.29
2022-09-25T21:30:47.337Z,86.70
2022-09-25T21:34:48.667Z,86.63
2022-09-25T21:38:50.218Z,86.96
2022-09-25T21:42:51.612Z,86.61
2022-09-25T21:46:52.997Z,86.99
2022-09-25T21:50:55.240Z,87.16
2022-09-25T21:54:57.196Z,87.16
2022-09-25T21:59:00.222Z,86.95
2022-09-25T22:03:03.395Z,87.20
2022-09-25T22:07:04.790Z,86.89
2022-09-25T22:11:07.066Z,86.94
2022-09-25T22:15:09.260Z,86.63
2022-09-25T22:19:15.359Z,87.12
2022-09-25T22:23:16.852Z,87.00
2022-09-25T22:27:24.405Z,88.07
2022-09-25T22:31:27.342Z,87.37
2022-09-25T22:35:28.694Z,87.46
2022-09-25T22:39:30.012Z,88.46
2022-09-25T22:43:31.762Z,88.67
2022-09-25T22:47:33.290Z,88.38
2022-09-25T22:51:41.425Z,88.31
2022-09-25T22:55:42.759Z,88.36
2022-09-25T22:59:50.452Z,88.62
2022-09-25T23:03:56.019Z,88.65
2022-09-25T23:07:57.250Z,88.70
2022-09-25T23:11:58.706Z,88.50
2022-09-25T23:16:07.087Z,88.95
2022-09-25T23:20:15.453Z,88.55
2022-09-25T23:24:17.450Z,88.81
2022-09-25T23:28:18.728Z,88.24
2022-09-25T23:36:46.485Z,88.98
2022-09-25T23:40:47.844Z,88.88
2022-09-25T23:44:49.389Z,88.71
2022-09-25T23:48:51.356Z,88.37
2022-09-25T23:52:52.635Z,88.34
2022-09-25T23:56:53.993Z,88.89
